sensor_id;sensor_type;location;lat;lon;timestamp;pressure;altitude;pressure_sealevel;temperature;humidity
47897;BME280;39629;51.400;5.494;2023-08-01T00:02:21;99695.59;;;16.13;100.00
47897;BME280;39629;51.400;5.494;2023-08-01T00:07:23;99698.13;;;16.16;100.00
47897;BME280;39629;51.400;5.494;2023-08-01T00:12:27;99689.22;;;16.17;100.00
47897;BME280;39629;51.400;5.494;2023-08-01T00:17:28;99684.84;;;16.16;100.00
47897;BME280;39629;51.400;5.494;2023-08-01T00:22:30;99695.59;;;16.13;100.00
47897;BME280;39629;51.400;5.494;2023-08-01T00:27:33;99687.25;;;16.01;100.00
47897;BME280;39629;51.400;5.494;2023-08-01T00:32:34;99688.31;;;15.97;100.00
47897;BME280;39629;51.400;5.494;2023-08-01T00:37:37;99684.94;;;15.94;100.00
47897;BME280;39629;51.400;5.494;2023-08-01T00:42:40;99679.88;;;15.88;100.00
47897;BME280;39629;51.400;5.494;2023-08-01T00:47:41;99685.59;;;15.78;100.00
47897;BME280;39629;51.400;5.494;2023-08-01T00:52:43;99680.31;;;15.78;100.00
47897;BME280;39629;51.400;5.494;2023-08-01T00:57:46;99688.56;;;15.71;100.00
47897;BME280;39629;51.400;5.494;2023-08-01T01:02:48;99680.94;;;15.63;100.00
47897;BME280;39629;51.400;5.494;2023-08-01T01:07:50;99680.47;;;15.53;100.00
47897;BME280;39629;51.400;5.494;2023-08-01T01:12:53;99675.66;;;15.41;100.00
47897;BME280;39629;51.400;5.494;2023-08-01T01:17:55;99668.13;;;15.31;100.00
47897;BME280;39629;51.400;5.494;2023-08-01T01:22:58;99673.00;;;15.20;100.00
47897;BME280;39629;51.400;5.494;2023-08-01T01:28:03;99687.28;;;15.16;100.00
47897;BME280;39629;51.400;5.494;2023-08-01T01:33:05;99678.97;;;15.02;100.00
47897;BME280;39629;51.400;5.494;2023-08-01T01:38:09;99668.78;;;14.92;100.00
47897;BME280;39629;51.400;5.494;2023-08-01T01:43:11;99672.69;;;14.82;100.00
47897;BME280;39629;51.400;5.494;2023-08-01T01:48:12;99672.81;;;14.79;100.00
47897;BME280;39629;51.400;5.494;2023-08-01T01:53:15;99670.09;;;14.80;100.00
47897;BME280;39629;51.400;5.494;2023-08-01T01:58:17;99670.03;;;14.82;100.00
47897;BME280;39629;51.400;5.494;2023-08-01T02:03:18;99673.72;;;14.78;100.00
47897;BME280;39629;51.400;5.494;2023-08-01T02:08:21;99665.09;;;14.73;100.00
47897;BME280;39629;51.400;5.494;2023-08-01T02:13:23;99675.16;;;14.64;100.00
47897;BME280;39629;51.400;5.494;2023-08-01T02:18:25;99661.44;;;14.53;100.00
47897;BME280;39629;51.400;5.494;2023-08-01T02:23:28;99665.13;;;14.49;100.00
47897;BME280;39629;51.400;5.494;2023-08-01T02:28:30;99672.47;;;14.41;100.00
47897;BME280;39629;51.400;5.494;2023-08-01T02:33:31;99669.81;;;14.42;100.00
47897;BME280;39629;51.400;5.494;2023-08-01T02:38:34;99684.00;;;14.40;100.00
47897;BME280;39629;51.400;5.494;2023-08-01T02:43:36;99687.63;;;14.37;100.00
47897;BME280;39629;51.400;5.494;2023-08-01T02:48:37;99689.31;;;14.40;100.00
47897;BME280;39629;51.400;5.494;2023-08-01T02:53:40;99693.56;;;14.44;100.00
47897;BME280;39629;51.400;5.494;2023-08-01T02:58:42;99697.91;;;14.45;100.00
47897;BME280;39629;51.400;5.494;2023-08-01T03:03:43;99692.63;;;14.45;100.00
47897;BME280;39629;51.400;5.494;2023-08-01T03:08:46;99696.09;;;14.47;100.00
47897;BME280;39629;51.400;5.494;2023-08-01T03:13:48;99693.31;;;14.50;100.00
47897;BME280;39629;51.400;5.494;2023-08-01T03:18:50;99686.25;;;14.51;100.00
47897;BME280;39629;51.400;5.494;2023-08-01T03:23:53;99689.69;;;14.53;100.00
47897;BME280;39629;51.400;5.494;2023-08-01T03:28:55;99692.28;;;14.54;100.00
47897;BME280;39629;51.400;5.494;2023-08-01T03:33:57;99684.22;;;14.57;100.00
47897;BME280;39629;51.400;5.494;2023-08-01T03:39:00;99696.66;;;14.55;100.00
47897;BME280;39629;51.400;5.494;2023-08-01T03:44:01;99692.22;;;14.56;100.00
47897;BME280;39629;51.400;5.494;2023-08-01T03:49:03;99700.16;;;14.56;100.00
47897;BME280;39629;51.400;5.494;2023-08-01T03:54:06;99697.47;;;14.57;100.00
47897;BME280;39629;51.400;5.494;2023-08-01T03:59:07;99688.66;;;14.57;100.00
47897;BME280;39629;51.400;5.494;2023-08-01T04:04:10;99700.03;;;14.59;100.00
47897;BME280;39629;51.400;5.494;2023-08-01T04:09:13;99700.94;;;14.59;100.00
47897;BME280;39629;51.400;5.494;2023-08-01T04:14:15;99693.84;;;14.60;100.00
47897;BME280;39629;51.400;5.494;2023-08-01T04:19:16;99693.00;;;14.59;100.00
47897;BME280;39629;51.400;5.494;2023-08-01T04:24:19;99711.41;;;14.62;100.00
47897;BME280;39629;51.400;5.494;2023-08-01T04:29:21;99693.72;;;14.63;100.00
47897;BME280;39629;51.400;5.494;2023-08-01T04:34:23;99693.84;;;14.60;100.00
47897;BME280;39629;51.400;5.494;2023-08-01T04:39:26;99689.44;;;14.60;100.00
47897;BME280;39629;51.400;5.494;2023-08-01T04:44:27;99685.84;;;14.61;100.00
47897;BME280;39629;51.400;5.494;2023-08-01T04:49:29;99692.75;;;14.65;100.00
47897;BME280;39629;51.400;5.494;2023-08-01T04:54:32;99696.94;;;14.71;100.00
47897;BME280;39629;51.400;5.494;2023-08-01T04:59:34;99717.16;;;14.74;100.00
47897;BME280;39629;51.400;5.494;2023-08-01T05:04:35;99724.31;;;14.72;100.00
47897;BME280;39629;51.400;5.494;2023-08-01T05:09:38;99716.09;;;14.78;100.00
47897;BME280;39629;51.400;5.494;2023-08-01T05:14:40;99718.28;;;14.90;100.00
47897;BME280;39629;51.400;5.494;2023-08-01T05:19:41;99714.94;;;14.85;100.00
47897;BME280;39629;51.400;5.494;2023-08-01T05:24:45;99712.75;;;14.96;100.00
47897;BME280;39629;51.400;5.494;2023-08-01T05:29:46;99719.28;;;15.10;100.00
47897;BME280;39629;51.400;5.494;2023-08-01T05:34:48;99723.03;;;15.04;100.00
47897;BME280;39629;51.400;5.494;2023-08-01T05:39:51;99728.06;;;15.12;100.00
47897;BME280;39629;51.400;5.494;2023-08-01T05:44:52;99735.72;;;15.20;100.00
47897;BME280;39629;51.400;5.494;2023-08-01T05:49:54;99725.53;;;15.53;100.00
47897;BME280;39629;51.400;5.494;2023-08-01T05:54:56;99737.91;;;15.75;100.00
47897;BME280;39629;51.400;5.494;2023-08-01T05:59:58;99738.41;;;15.62;100.00
47897;BME280;39629;51.400;5.494;2023-08-01T06:05:00;99741.25;;;15.80;100.00
47897;BME280;39629;51.400;5.494;2023-08-01T06:10:03;99729.53;;;16.85;100.00
47897;BME280;39629;51.400;5.494;2023-08-01T06:15:05;99733.31;;;17.18;100.00
47897;BME280;39629;51.400;5.494;2023-08-01T06:20:08;99737.28;;;17.28;100.00
47897;BME280;39629;51.400;5.494;2023-08-01T06:25:11;99743.25;;;16.76;100.00
47897;BME280;39629;51.400;5.494;2023-08-01T06:30:13;99746.50;;;16.43;100.00
47897;BME280;39629;51.400;5.494;2023-08-01T06:35:14;99740.72;;;16.33;100.00
47897;BME280;39629;51.400;5.494;2023-08-01T06:40:17;99758.25;;;16.38;100.00
47897;BME280;39629;51.400;5.494;2023-08-01T06:45:19;99758.09;;;16.61;100.00
47897;BME280;39629;51.400;5.494;2023-08-01T06:50:20;99762.16;;;16.29;100.00
47897;BME280;39629;51.400;5.494;2023-08-01T06:55:23;99766.66;;;16.27;100.00
47897;BME280;39629;51.400;5.494;2023-08-01T07:00:25;99765.53;;;16.12;100.00
47897;BME280;39629;51.400;5.494;2023-08-01T07:05:26;99769.50;;;16.63;100.00
47897;BME280;39629;51.400;5.494;2023-08-01T07:10:29;99763.91;;;16.69;100.00
47897;BME280;39629;51.400;5.494;2023-08-01T07:15:32;99774.16;;;16.58;100.00
47897;BME280;39629;51.400;5.494;2023-08-01T07:20:33;99774.78;;;17.78;100.00
47897;BME280;39629;51.400;5.494;2023-08-01T07:25:36;99782.41;;;17.11;100.00
47897;BME280;39629;51.400;5.494;2023-08-01T07:30:38;99768.88;;;17.34;100.00
47897;BME280;39629;51.400;5.494;2023-08-01T07:35:39;99779.34;;;17.76;100.00
47897;BME280;39629;51.400;5.494;2023-08-01T07:40:42;99774.53;;;18.70;100.00
47897;BME280;39629;51.400;5.494;2023-08-01T07:45:43;99780.09;;;17.78;100.00
47897;BME280;39629;51.400;5.494;2023-08-01T07:50:45;99791.16;;;18.58;100.00
47897;BME280;39629;51.400;5.494;2023-08-01T07:55:48;99786.88;;;18.20;100.00
47897;BME280;39629;51.400;5.494;2023-08-01T08:00:50;99791.03;;;18.77;100.00
47897;BME280;39629;51.400;5.494;2023-08-01T08:05:51;99801.81;;;18.22;100.00
47897;BME280;39629;51.400;5.494;2023-08-01T08:10:54;99800.41;;;17.61;100.00
47897;BME280;39629;51.400;5.494;2023-08-01T08:15:56;99799.22;;;18.38;100.00
47897;BME280;39629;51.400;5.494;2023-08-01T08:20:58;99796.94;;;18.31;100.00
47897;BME280;39629;51.400;5.494;2023-08-01T08:26:01;99810.19;;;17.97;100.00
47897;BME280;39629;51.400;5.494;2023-08-01T08:31:04;99793.91;;;18.21;100.00
47897;BME280;39629;51.400;5.494;2023-08-01T08:36:06;99803.16;;;18.82;100.00
47897;BME280;39629;51.400;5.494;2023-08-01T08:41:10;99802.06;;;18.53;100.00
47897;BME280;39629;51.400;5.494;2023-08-01T08:46:15;99810.75;;;18.90;100.00
47897;BME280;39629;51.400;5.494;2023-08-01T08:51:18;99821.16;;;18.61;100.00
47897;BME280;39629;51.400;5.494;2023-08-01T08:56:21;99805.47;;;18.72;100.00
47897;BME280;39629;51.400;5.494;2023-08-01T09:01:23;99812.03;;;18.83;100.00
47897;BME280;39629;51.400;5.494;2023-08-01T09:06:29;99801.75;;;18.93;100.00
47897;BME280;39629;51.400;5.494;2023-08-01T09:11:41;99805.19;;;19.60;100.00
47897;BME280;39629;51.400;5.494;2023-08-01T09:16:45;99804.06;;;18.65;100.00
47897;BME280;39629;51.400;5.494;2023-08-01T09:21:47;99819.41;;;18.78;100.00
47897;BME280;39629;51.400;5.494;2023-08-01T09:26:50;99817.66;;;18.94;100.00
47897;BME280;39629;51.400;5.494;2023-08-01T09:31:52;99827.06;;;19.33;100.00
47897;BME280;39629;51.400;5.494;2023-08-01T09:36:58;99815.97;;;19.25;100.00
47897;BME280;39629;51.400;5.494;2023-08-01T09:42:02;99828.84;;;19.01;100.00
47897;BME280;39629;51.400;5.494;2023-08-01T09:47:05;99837.63;;;18.69;100.00
47897;BME280;39629;51.400;5.494;2023-08-01T09:52:07;99826.09;;;19.52;100.00
47897;BME280;39629;51.400;5.494;2023-08-01T09:57:10;99830.13;;;19.59;100.00
47897;BME280;39629;51.400;5.494;2023-08-01T10:02:15;99828.16;;;20.09;100.00
47897;BME280;39629;51.400;5.494;2023-08-01T10:07:23;99835.28;;;20.08;100.00
47897;BME280;39629;51.400;5.494;2023-08-01T10:12:26;99837.34;;;20.35;100.00
47897;BME280;39629;51.400;5.494;2023-08-01T10:17:29;99830.16;;;20.95;100.00
47897;BME280;39629;51.400;5.494;2023-08-01T10:22:31;99842.28;;;20.11;100.00
47897;BME280;39629;51.400;5.494;2023-08-01T10:27:34;99843.81;;;19.69;100.00
47897;BME280;39629;51.400;5.494;2023-08-01T10:32:38;99851.69;;;20.02;100.00
47897;BME280;39629;51.400;5.494;2023-08-01T10:37:41;99857.47;;;19.95;100.00
47897;BME280;39629;51.400;5.494;2023-08-01T10:42:45;99850.19;;;21.17;100.00
47897;BME280;39629;51.400;5.494;2023-08-01T10:47:47;99842.38;;;21.28;100.00
47897;BME280;39629;51.400;5.494;2023-08-01T10:52:48;99838.13;;;21.53;100.00
47897;BME280;39629;51.400;5.494;2023-08-01T10:57:53;99850.03;;;21.34;100.00
47897;BME280;39629;51.400;5.494;2023-08-01T11:02:57;99855.47;;;21.33;100.00
47897;BME280;39629;51.400;5.494;2023-08-01T11:08:00;99865.06;;;21.64;100.00
47897;BME280;39629;51.400;5.494;2023-08-01T11:13:04;99887.16;;;20.96;100.00
47897;BME280;39629;51.400;5.494;2023-08-01T11:18:05;99872.03;;;21.39;100.00
47897;BME280;39629;51.400;5.494;2023-08-01T11:23:10;99871.94;;;21.83;100.00
47897;BME280;39629;51.400;5.494;2023-08-01T11:28:15;99869.63;;;21.35;100.00
47897;BME280;39629;51.400;5.494;2023-08-01T11:33:20;99881.13;;;21.78;100.00
47897;BME280;39629;51.400;5.494;2023-08-01T11:38:22;99878.78;;;21.45;100.00
47897;BME280;39629;51.400;5.494;2023-08-01T11:43:38;99875.97;;;21.61;100.00
47897;BME280;39629;51.400;5.494;2023-08-01T11:48:44;99890.72;;;21.54;100.00
47897;BME280;39629;51.400;5.494;2023-08-01T11:53:46;99902.59;;;21.21;100.00
47897;BME280;39629;51.400;5.494;2023-08-01T11:58:50;99892.66;;;21.52;100.00
47897;BME280;39629;51.400;5.494;2023-08-01T12:03:53;99893.66;;;22.20;100.00
47897;BME280;39629;51.400;5.494;2023-08-01T12:09:05;99894.56;;;21.35;100.00
47897;BME280;39629;51.400;5.494;2023-08-01T12:14:10;99890.44;;;22.27;100.00
47897;BME280;39629;51.400;5.494;2023-08-01T12:19:16;99902.22;;;22.25;100.00
47897;BME280;39629;51.400;5.494;2023-08-01T12:24:18;99897.44;;;22.43;100.00
47897;BME280;39629;51.400;5.494;2023-08-01T12:29:21;99904.59;;;22.02;100.00
47897;BME280;39629;51.400;5.494;2023-08-01T12:34:22;99900.09;;;22.30;100.00
47897;BME280;39629;51.400;5.494;2023-08-01T12:39:24;99892.50;;;22.90;100.00
47897;BME280;39629;51.400;5.494;2023-08-01T12:44:27;99903.34;;;23.27;100.00
47897;BME280;39629;51.400;5.494;2023-08-01T12:49:29;99909.53;;;22.76;100.00
47897;BME280;39629;51.400;5.494;2023-08-01T12:54:30;99910.47;;;22.22;100.00
47897;BME280;39629;51.400;5.494;2023-08-01T12:59:33;99914.13;;;21.50;100.00
47897;BME280;39629;51.400;5.494;2023-08-01T13:04:35;99909.06;;;21.74;100.00
47897;BME280;39629;51.400;5.494;2023-08-01T13:09:36;99922.06;;;21.66;100.00
47897;BME280;39629;51.400;5.494;2023-08-01T13:14:39;99915.59;;;21.27;100.00
47897;BME280;39629;51.400;5.494;2023-08-01T13:19:40;99921.56;;;21.88;100.00
47897;BME280;39629;51.400;5.494;2023-08-01T13:24:42;99926.47;;;22.36;100.00
47897;BME280;39629;51.400;5.494;2023-08-01T13:29:45;99918.50;;;22.22;100.00
47897;BME280;39629;51.400;5.494;2023-08-01T13:34:46;99924.94;;;22.59;100.00
47897;BME280;39629;51.400;5.494;2023-08-01T13:39:48;99918.81;;;22.97;100.00
47897;BME280;39629;51.400;5.494;2023-08-01T13:44:51;99935.97;;;23.21;100.00
47897;BME280;39629;51.400;5.494;2023-08-01T13:49:54;99930.06;;;23.03;100.00
47897;BME280;39629;51.400;5.494;2023-08-01T13:54:56;99939.94;;;23.28;100.00
47897;BME280;39629;51.400;5.494;2023-08-01T13:59:59;99933.91;;;22.86;100.00
47897;BME280;39629;51.400;5.494;2023-08-01T14:05:00;99929.88;;;23.19;100.00
47897;BME280;39629;51.400;5.494;2023-08-01T14:10:02;99941.47;;;23.06;100.00
47897;BME280;39629;51.400;5.494;2023-08-01T14:15:06;99942.22;;;22.68;100.00
47897;BME280;39629;51.400;5.494;2023-08-01T14:20:08;99954.25;;;22.08;100.00
47897;BME280;39629;51.400;5.494;2023-08-01T14:25:10;99952.47;;;22.89;100.00
47897;BME280;39629;51.400;5.494;2023-08-01T14:30:13;99951.09;;;22.96;100.00
47897;BME280;39629;51.400;5.494;2023-08-01T14:35:14;99963.84;;;22.25;100.00
47897;BME280;39629;51.400;5.494;2023-08-01T14:40:16;99979.41;;;22.20;100.00
47897;BME280;39629;51.400;5.494;2023-08-01T14:45:19;99969.19;;;22.39;100.00
47897;BME280;39629;51.400;5.494;2023-08-01T14:50:21;99962.81;;;22.95;100.00
47897;BME280;39629;51.400;5.494;2023-08-01T14:55:22;99976.16;;;22.15;100.00
47897;BME280;39629;51.400;5.494;2023-08-01T15:00:25;99976.94;;;22.57;100.00
47897;BME280;39629;51.400;5.494;2023-08-01T15:05:27;99985.03;;;22.29;100.00
47897;BME280;39629;51.400;5.494;2023-08-01T15:10:28;99982.09;;;22.60;100.00
47897;BME280;39629;51.400;5.494;2023-08-01T15:15:36;99976.72;;;22.60;100.00
47897;BME280;39629;51.400;5.494;2023-08-01T15:20:38;99976.22;;;22.55;100.00
47897;BME280;39629;51.400;5.494;2023-08-01T15:25:41;99986.53;;;22.34;100.00
47897;BME280;39629;51.400;5.494;2023-08-01T15:30:44;99987.06;;;22.11;100.00
47897;BME280;39629;51.400;5.494;2023-08-01T15:35:45;99994.31;;;22.24;100.00
47897;BME280;39629;51.400;5.494;2023-08-01T15:40:47;99995.03;;;21.84;100.00
47897;BME280;39629;51.400;5.494;2023-08-01T15:45:53;99996.84;;;21.69;93.82
47897;BME280;39629;51.400;5.494;2023-08-01T15:50:54;99985.72;;;21.18;99.27
47897;BME280;39629;51.400;5.494;2023-08-01T15:55:56;99990.34;;;21.59;96.01
47897;BME280;39629;51.400;5.494;2023-08-01T16:01:00;99993.47;;;21.94;100.00
47897;BME280;39629;51.400;5.494;2023-08-01T16:06:02;99999.91;;;21.92;94.15
47897;BME280;39629;51.400;5.494;2023-08-01T16:11:03;100013.28;;;21.34;100.00
47897;BME280;39629;51.400;5.494;2023-08-01T16:16:06;100006.28;;;20.87;100.00
47897;BME280;39629;51.400;5.494;2023-08-01T16:21:08;99999.91;;;21.20;100.00
47897;BME280;39629;51.400;5.494;2023-08-01T16:26:10;100004.56;;;21.00;100.00
47897;BME280;39629;51.400;5.494;2023-08-01T16:31:13;100010.56;;;20.59;100.00
47897;BME280;39629;51.400;5.494;2023-08-01T16:36:14;100017.00;;;21.01;100.00
47897;BME280;39629;51.400;5.494;2023-08-01T16:41:16;100013.78;;;20.80;100.00
47897;BME280;39629;51.400;5.494;2023-08-01T16:46:23;100022.56;;;20.36;100.00
47897;BME280;39629;51.400;5.494;2023-08-01T16:51:24;100024.69;;;20.29;100.00
47897;BME280;39629;51.400;5.494;2023-08-01T16:56:26;100033.47;;;19.99;100.00
47897;BME280;39629;51.400;5.494;2023-08-01T17:01:28;100035.75;;;19.73;100.00
47897;BME280;39629;51.400;5.494;2023-08-01T17:06:30;100030.34;;;19.91;100.00
47897;BME280;39629;51.400;5.494;2023-08-01T17:11:32;100032.59;;;19.83;100.00
47897;BME280;39629;51.400;5.494;2023-08-01T17:16:35;100032.22;;;19.89;100.00
47897;BME280;39629;51.400;5.494;2023-08-01T17:21:36;100036.00;;;19.85;100.00
47897;BME280;39629;51.400;5.494;2023-08-01T17:26:38;100029.63;;;19.71;100.00
47897;BME280;39629;51.400;5.494;2023-08-01T17:31:42;100043.09;;;19.52;100.00
47897;BME280;39629;51.400;5.494;2023-08-01T17:36:43;100042.63;;;19.62;100.00
47897;BME280;39629;51.400;5.494;2023-08-01T17:41:44;100049.53;;;19.48;100.00
47897;BME280;39629;51.400;5.494;2023-08-01T17:46:47;100042.28;;;19.50;100.00
47897;BME280;39629;51.400;5.494;2023-08-01T17:51:49;100044.25;;;19.29;100.00
47897;BME280;39629;51.400;5.494;2023-08-01T17:56:51;100050.78;;;19.23;100.00
47897;BME280;39629;51.400;5.494;2023-08-01T18:01:54;100054.94;;;19.12;100.00
47897;BME280;39629;51.400;5.494;2023-08-01T18:06:55;100052.41;;;19.08;100.00
47897;BME280;39629;51.400;5.494;2023-08-01T18:11:57;100051.09;;;19.00;100.00
47897;BME280;39629;51.400;5.494;2023-08-01T18:17:00;100065.34;;;18.81;100.00
47897;BME280;39629;51.400;5.494;2023-08-01T18:22:02;100066.72;;;18.71;100.00
47897;BME280;39629;51.400;5.494;2023-08-01T18:27:04;100066.81;;;18.69;100.00
47897;BME280;39629;51.400;5.494;2023-08-01T18:32:08;100074.81;;;18.69;100.00
47897;BME280;39629;51.400;5.494;2023-08-01T18:37:09;100070.22;;;18.54;100.00
47897;BME280;39629;51.400;5.494;2023-08-01T18:42:11;100071.16;;;18.53;100.00
47897;BME280;39629;51.400;5.494;2023-08-01T18:47:14;100075.84;;;18.48;100.00
47897;BME280;39629;51.400;5.494;2023-08-01T18:52:15;100069.88;;;18.43;100.00
47897;BME280;39629;51.400;5.494;2023-08-01T18:57:17;100084.53;;;18.32;100.00
47897;BME280;39629;51.400;5.494;2023-08-01T19:02:20;100083.66;;;18.13;100.00
47897;BME280;39629;51.400;5.494;2023-08-01T19:07:22;100097.59;;;17.99;100.00
47897;BME280;39629;51.400;5.494;2023-08-01T19:12:24;100097.97;;;17.91;100.00
47897;BME280;39629;51.400;5.494;2023-08-01T19:17:27;100109.69;;;17.87;100.00
47897;BME280;39629;51.400;5.494;2023-08-01T19:22:29;100104.00;;;17.76;100.00
47897;BME280;39629;51.400;5.494;2023-08-01T19:27:30;100104.31;;;17.68;100.00
47897;BME280;39629;51.400;5.494;2023-08-01T19:32:33;100105.97;;;17.50;100.00
47897;BME280;39629;51.400;5.494;2023-08-01T19:37:35;100109.97;;;17.40;100.00
47897;BME280;39629;51.400;5.494;2023-08-01T19:42:36;100114.25;;;17.22;100.00
47897;BME280;39629;51.400;5.494;2023-08-01T19:47:39;100120.00;;;17.11;100.00
47897;BME280;39629;51.400;5.494;2023-08-01T19:52:41;100110.81;;;16.97;100.00
47897;BME280;39629;51.400;5.494;2023-08-01T19:57:42;100116.38;;;16.91;100.00
47897;BME280;39629;51.400;5.494;2023-08-01T20:02:46;100115.84;;;16.83;100.00
47897;BME280;39629;51.400;5.494;2023-08-01T20:07:48;100117.81;;;16.78;100.00
47897;BME280;39629;51.400;5.494;2023-08-01T20:12:50;100118.06;;;16.72;100.00
47897;BME280;39629;51.400;5.494;2023-08-01T20:17:53;100115.69;;;16.64;100.00
47897;BME280;39629;51.400;5.494;2023-08-01T20:22:55;100116.59;;;16.64;100.00
47897;BME280;39629;51.400;5.494;2023-08-01T20:27:56;100106.75;;;16.66;100.00
47897;BME280;39629;51.400;5.494;2023-08-01T20:32:59;100103.16;;;16.67;100.00
47897;BME280;39629;51.400;5.494;2023-08-01T20:38:01;100094.16;;;16.72;100.00
47897;BME280;39629;51.400;5.494;2023-08-01T20:43:03;100094.44;;;16.64;100.00
47897;BME280;39629;51.400;5.494;2023-08-01T20:48:06;100086.41;;;16.65;100.00
47897;BME280;39629;51.400;5.494;2023-08-01T20:53:08;100091.78;;;16.64;100.00
47897;BME280;39629;51.400;5.494;2023-08-01T20:58:10;100085.06;;;16.55;100.00
47897;BME280;39629;51.400;5.494;2023-08-01T21:03:13;100086.41;;;16.43;100.00
47897;BME280;39629;51.400;5.494;2023-08-01T21:08:14;100079.41;;;16.41;100.00
47897;BME280;39629;51.400;5.494;2023-08-01T21:13:16;100082.13;;;16.39;100.00
47897;BME280;39629;51.400;5.494;2023-08-01T21:18:19;100080.53;;;16.35;100.00
47897;BME280;39629;51.400;5.494;2023-08-01T21:23:21;100079.72;;;16.33;100.00
47897;BME280;39629;51.400;5.494;2023-08-01T21:28:22;100082.53;;;16.28;100.00
47897;BME280;39629;51.400;5.494;2023-08-01T21:33:25;100082.81;;;16.21;100.00
47897;BME280;39629;51.400;5.494;2023-08-01T21:38:27;100083.81;;;16.18;100.00
47897;BME280;39629;51.400;5.494;2023-08-01T21:43:28;100084.84;;;16.14;100.00
47897;BME280;39629;51.400;5.494;2023-08-01T21:48:32;100084.03;;;16.12;100.00
47897;BME280;39629;51.400;5.494;2023-08-01T21:53:34;100069.84;;;15.89;100.00
47897;BME280;39629;51.400;5.494;2023-08-01T21:58:36;100067.41;;;15.83;100.00
47897;BME280;39629;51.400;5.494;2023-08-01T22:03:39;100069.44;;;15.76;100.00
47897;BME280;39629;51.400;5.494;2023-08-01T22:08:40;100066.97;;;15.72;100.00
47897;BME280;39629;51.400;5.494;2023-08-01T22:13:42;100067.03;;;15.68;100.00
47897;BME280;39629;51.400;5.494;2023-08-01T22:18:44;100053.22;;;15.60;100.00
47897;BME280;39629;51.400;5.494;2023-08-01T22:23:46;100060.47;;;15.55;100.00
47897;BME280;39629;51.400;5.494;2023-08-01T22:28:47;100061.50;;;15.51;100.00
47897;BME280;39629;51.400;5.494;2023-08-01T22:33:50;100060.72;;;15.47;100.00
47897;BME280;39629;51.400;5.494;2023-08-01T22:38:52;100063.38;;;15.47;100.00
47897;BME280;39629;51.400;5.494;2023-08-01T22:43:56;100075.06;;;15.42;100.00
47897;BME280;39629;51.400;5.494;2023-08-01T22:48:59;100065.63;;;15.35;100.00
47897;BME280;39629;51.400;5.494;2023-08-01T22:54:01;100054.91;;;15.38;100.00
47897;BME280;39629;51.400;5.494;2023-08-01T22:59:03;100042.66;;;15.33;100.00
47897;BME280;39629;51.400;5.494;2023-08-01T23:04:05;100034.81;;;15.30;100.00
47897;BME280;39629;51.400;5.494;2023-08-01T23:09:07;100024.47;;;15.24;100.00
47897;BME280;39629;51.400;5.494;2023-08-01T23:14:09;100021.09;;;15.19;100.00
47897;BME280;39629;51.400;5.494;2023-08-01T23:19:12;100007.22;;;15.11;100.00
47897;BME280;39629;51.400;5.494;2023-08-01T23:24:13;100003.09;;;15.02;100.00
47897;BME280;39629;51.400;5.494;2023-08-01T23:29:15;99992.75;;;14.94;100.00
47897;BME280;39629;51.400;5.494;2023-08-01T23:34:17;99977.09;;;14.88;100.00
47897;BME280;39629;51.400;5.494;2023-08-01T23:39:19;99971.19;;;14.80;100.00
47897;BME280;39629;51.400;5.494;2023-08-01T23:44:21;99973.00;;;14.78;100.00
47897;BME280;39629;51.400;5.494;2023-08-01T23:49:23;99962.69;;;14.70;100.00
47897;BME280;39629;51.400;5.494;2023-08-01T23:54:25;99960.00;;;14.72;100.00
47897;BME280;39629;51.400;5.494;2023-08-01T23:59:28;99948.69;;;14.67;100.00
